Time;durP1;ratioP1;P1;durP2;ratioP2;P2;SDS_P1;SDS_P2;PMS_P1;PMS_P2;Temp;Humidity;BMP_temperature;BMP_pressure;BME280_temperature;BME280_humidity;BME280_pressure;Samples;Min_cycle;Max_cycle;Signal;HPM_P1;HPM_P2
2021/12/22 00:01:13;;;;;;;9.98;5.22;;;;;;;-16.60;62.07;99217.84;4889818;29;20065;-58
2021/12/22 00:03:42;;;;;;;10.38;4.30;;;;;;;-16.63;61.92;99215.13;4904818;29;20032;-58
2021/12/22 00:06:08;;;;;;;10.68;5.35;;;;;;;-16.59;62.13;99219.56;4888645;29;20025;-57
2021/12/22 00:08:33;;;;;;;9.13;4.57;;;;;;;-16.62;61.60;99216.00;4890421;29;20037;-57
2021/12/22 00:10:59;;;;;;;11.30;4.95;;;;;;;-16.56;61.31;99217.31;4890385;29;20044;-58
2021/12/22 00:13:25;;;;;;;8.43;4.20;;;;;;;-16.75;61.19;99224.09;4888139;29;20036;-60
2021/12/22 00:15:50;;;;;;;8.90;4.95;;;;;;;-16.68;61.20;99228.78;4890107;29;20321;-57
2021/12/22 00:18:16;;;;;;;10.75;5.13;;;;;;;-16.78;61.64;99217.28;4890159;29;20221;-58
2021/12/22 00:20:41;;;;;;;10.02;5.00;;;;;;;-16.72;62.49;99226.81;4889950;29;20033;-58
2021/12/22 00:23:07;;;;;;;7.60;4.10;;;;;;;-16.67;61.81;99226.41;4887736;29;20072;-56
2021/12/22 00:25:33;;;;;;;8.10;5.05;;;;;;;-16.73;61.79;99218.50;4887203;29;20021;-57
2021/12/22 00:27:59;;;;;;;8.48;5.05;;;;;;;-16.73;62.06;99225.94;4888594;29;20040;-57
2021/12/22 00:30:26;;;;;;;8.20;4.95;;;;;;;-16.92;61.69;99200.53;4887546;29;20032;-58
2021/12/22 00:32:55;;;;;;;15.10;5.68;;;;;;;-17.03;61.74;99172.44;4889641;29;20044;-58
2021/12/22 00:35:24;;;;;;;10.45;4.82;;;;;;;-16.69;62.27;99229.50;4888912;29;20027;-58
2021/12/22 00:37:50;;;;;;;13.85;5.60;;;;;;;-16.86;61.05;99234.03;4890037;29;20064;-58
2021/12/22 00:40:16;;;;;;;10.75;5.05;;;;;;;-16.72;61.84;99240.03;4889953;29;20369;-58
2021/12/22 00:42:41;;;;;;;8.30;4.43;;;;;;;-16.92;61.49;99238.50;4888864;29;20035;-57
2021/12/22 00:45:07;;;;;;;7.85;4.55;;;;;;;-16.93;62.20;99219.44;4888584;29;20025;-56
2021/12/22 00:47:33;;;;;;;9.25;5.20;;;;;;;-16.85;63.16;99227.44;4889674;29;20029;-57
2021/12/22 00:50:00;;;;;;;9.30;5.25;;;;;;;-16.81;62.00;99238.44;4894128;29;20307;-56
2021/12/22 00:52:26;;;;;;;7.45;4.28;;;;;;;-16.89;61.61;99238.75;4911812;29;20081;-56
2021/12/22 00:54:52;;;;;;;7.97;4.32;;;;;;;-16.85;62.56;99233.25;4894972;29;20146;-57
2021/12/22 00:57:18;;;;;;;8.98;4.40;;;;;;;-16.83;62.48;99230.03;4891794;29;20281;-57
2021/12/22 00:59:46;;;;;;;10.85;5.65;;;;;;;-17.20;62.92;99162.09;4896071;29;20041;-57
2021/12/22 01:02:18;;;;;;;12.55;5.18;;;;;;;-16.76;62.72;99212.44;4903851;29;20068;-57
2021/12/22 01:04:44;;;;;;;9.43;5.03;;;;;;;-16.72;62.70;99247.47;4901771;29;20094;-57
2021/12/22 01:07:10;;;;;;;9.60;4.93;;;;;;;-16.69;62.75;99244.38;4895802;29;20088;-57
2021/12/22 01:09:37;;;;;;;11.43;4.65;;;;;;;-16.76;62.02;99242.16;4894772;29;20249;-57
2021/12/22 01:12:05;;;;;;;7.47;4.40;;;;;;;-16.75;61.89;99243.91;4895771;29;20095;-57
2021/12/22 01:14:31;;;;;;;9.57;4.72;;;;;;;-16.75;62.81;99236.47;4895737;29;20045;-57
2021/12/22 01:17:01;;;;;;;9.02;4.40;;;;;;;-16.78;61.96;99228.81;4894872;29;20388;-56
2021/12/22 01:19:42;;;;;;;7.75;4.25;;;;;;;-16.79;61.52;99232.88;4894816;29;20029;-58
2021/12/22 01:22:36;;;;;;;9.15;4.25;;;;;;;-17.04;61.46;99225.19;4893022;29;20270;-57
2021/12/22 01:25:02;;;;;;;8.93;4.40;;;;;;;-17.06;62.07;99236.56;4909171;29;20117;-57
2021/12/22 01:27:36;;;;;;;8.38;4.43;;;;;;;-16.85;62.33;99248.13;4911304;29;20028;-58
2021/12/22 01:30:24;;;;;;;8.38;4.32;;;;;;;-17.01;61.42;99279.88;4895480;29;20036;-57
2021/12/22 01:32:53;;;;;;;8.95;4.10;;;;;;;-17.40;61.96;99196.75;4895040;29;20041;-57
2021/12/22 01:35:22;;;;;;;11.23;4.95;;;;;;;-17.70;62.33;99155.59;4894744;29;20033;-57
2021/12/22 01:37:48;;;;;;;10.82;4.25;;;;;;;-17.04;63.56;99233.47;4895532;29;20297;-56
2021/12/22 01:40:15;;;;;;;8.38;3.70;;;;;;;-17.24;63.07;99253.25;4895460;29;20029;-56
2021/12/22 01:42:41;;;;;;;7.85;3.80;;;;;;;-17.20;62.95;99248.69;4903460;29;20100;-56
2021/12/22 01:45:47;;;;;;;8.07;4.15;;;;;;;-17.53;63.21;99169.31;4902163;29;20239;-57
2021/12/22 01:51:04;;;;;;;6.40;3.60;;;;;;;-17.31;61.73;99185.13;4894527;29;20029;-58
2021/12/22 01:53:38;;;;;;;6.60;3.75;;;;;;;-17.35;61.76;99177.31;4894583;29;20033;-57
2021/12/22 01:56:16;;;;;;;7.78;4.13;;;;;;;-17.25;61.29;99221.84;4894501;29;20031;-58
2021/12/22 01:58:46;;;;;;;8.05;3.83;;;;;;;-17.04;61.65;99238.41;4894572;29;20029;-57
2021/12/22 02:01:12;;;;;;;9.48;4.05;;;;;;;-17.00;61.47;99241.97;4892723;29;20025;-57
2021/12/22 02:03:39;;;;;;;5.97;3.53;;;;;;;-17.06;61.86;99241.50;4891592;29;20017;-58
2021/12/22 02:06:06;;;;;;;7.05;3.60;;;;;;;-16.98;62.45;99233.09;4892366;29;20095;-57
2021/12/22 02:08:44;;;;;;;5.63;3.85;;;;;;;-16.92;63.36;99227.75;4891469;29;20332;-58
2021/12/22 02:11:10;;;;;;;7.95;3.95;;;;;;;-16.98;62.75;99229.72;4877770;29;20060;-57
2021/12/22 02:13:40;;;;;;;6.40;3.80;;;;;;;-16.90;63.33;99227.13;4891314;29;20029;-57
2021/12/22 02:16:10;;;;;;;7.50;4.38;;;;;;;-17.04;63.21;99198.81;4891707;29;20186;-57
2021/12/22 02:18:42;;;;;;;7.60;4.53;;;;;;;-17.47;62.42;99153.38;4892512;29;20043;-57
2021/12/22 02:21:08;;;;;;;8.68;4.45;;;;;;;-17.03;63.19;99226.88;4892206;29;20021;-57
2021/12/22 02:23:34;;;;;;;9.98;4.72;;;;;;;-16.93;62.55;99234.28;4892349;29;20053;-60
2021/12/22 02:26:14;;;;;;;9.27;4.75;;;;;;;-17.20;63.93;99173.59;4890969;29;20040;-57
2021/12/22 02:28:45;;;;;;;9.33;4.27;;;;;;;-16.76;63.52;99233.09;4892172;29;20041;-58
2021/12/22 02:31:15;;;;;;;6.20;3.50;;;;;;;-16.80;63.04;99240.19;4890337;29;20482;-58
2021/12/22 02:33:43;;;;;;;8.67;5.07;;;;;;;-16.97;62.79;99219.97;4888572;29;20037;-56
2021/12/22 02:36:37;;;;;;;6.38;3.65;;;;;;;-16.92;63.06;99240.97;4874983;29;20052;-57
2021/12/22 02:38:59;;;;;;;7.88;3.83;;;;;;;-17.37;62.10;99162.34;4895294;29;20063;-57
2021/12/22 02:41:28;;;;;;;7.82;4.57;;;;;;;-16.98;61.87;99259.44;4894831;29;20033;-56
2021/12/22 02:43:56;;;;;;;8.63;4.35;;;;;;;-16.80;62.97;99240.19;4890293;29;20217;-56
2021/12/22 02:46:31;;;;;;;8.80;4.60;;;;;;;-16.93;62.75;99258.19;4889859;29;20029;-57
2021/12/22 02:49:00;;;;;;;8.57;4.55;;;;;;;-16.90;62.71;99258.44;4890485;29;20056;-57
2021/12/22 02:51:29;;;;;;;8.13;4.40;;;;;;;-16.86;62.64;99229.06;4890518;29;20206;-57
2021/12/22 02:54:08;;;;;;;8.30;4.55;;;;;;;-16.99;62.71;99223.91;4890281;29;20052;-57
2021/12/22 02:56:51;;;;;;;7.35;4.28;;;;;;;-16.85;63.20;99233.25;4888031;29;20036;-57
2021/12/22 03:02:11;;;;;;;;;;;;;;;-16.81;61.44;99238.44;4890638;29;20048;-57
2021/12/22 03:04:50;;;;;;;7.43;4.10;;;;;;;-16.92;62.56;99225.28;4889699;29;19918;-57
2021/12/22 03:07:18;;;;;;;5.97;3.97;;;;;;;-17.01;62.41;99230.38;4905182;29;20033;-57
2021/12/22 03:09:45;;;;;;;8.63;4.28;;;;;;;-17.08;63.96;99231.47;4890999;29;20033;-58
2021/12/22 03:12:14;;;;;;;10.80;4.53;;;;;;;-17.08;63.04;99265.28;4888647;29;20037;-57
2021/12/22 03:14:40;;;;;;;9.18;4.13;;;;;;;-17.22;63.50;99208.09;4889918;29;20056;-57
2021/12/22 03:17:06;;;;;;;10.30;5.32;;;;;;;-17.10;63.34;99234.56;4889554;29;20224;-58
2021/12/22 03:19:35;;;;;;;7.40;4.10;;;;;;;-17.16;63.94;99232.47;4904163;29;20041;-58
2021/12/22 03:22:06;;;;;;;8.02;4.40;;;;;;;-17.13;64.00;99227.75;4894064;29;20035;-58
2021/12/22 03:24:32;;;;;;;;;;;;;;;-16.99;64.68;99223.06;4902691;29;20277;-58
2021/12/22 03:27:03;;;;;;;10.50;4.65;;;;;;;-17.00;63.76;99228.75;4888838;29;19964;-57
2021/12/22 03:29:31;;;;;;;7.97;4.47;;;;;;;-17.00;63.18;99228.75;4905587;29;20213;-58
2021/12/22 03:31:56;;;;;;;8.60;4.43;;;;;;;-16.98;64.34;99225.66;4889544;29;20071;-58
2021/12/22 03:34:22;;;;;;;9.93;4.93;;;;;;;-16.89;64.61;99236.28;4889381;29;20053;-58
2021/12/22 03:36:49;;;;;;;8.40;5.00;;;;;;;-16.80;64.66;99232.75;4903620;29;20058;-58
2021/12/22 03:39:15;;;;;;;9.30;4.80;;;;;;;-16.75;63.79;99236.47;4892395;29;20341;-57
2021/12/22 03:41:43;;;;;;;9.73;5.35;;;;;;;-17.29;63.84;99158.88;4890216;29;20059;-58
2021/12/22 03:44:09;;;;;;;9.70;4.72;;;;;;;-16.76;64.16;99224.81;4888919;29;20084;-57
2021/12/22 03:46:36;;;;;;;9.73;5.15;;;;;;;-16.69;64.06;99234.47;4888986;29;20040;-57
2021/12/22 03:49:04;;;;;;;8.55;5.07;;;;;;;-16.78;64.51;99207.38;4889955;29;20119;-57
2021/12/22 03:51:30;;;;;;;8.77;4.82;;;;;;;-16.61;63.73;99235.03;4889171;29;20262;-57
2021/12/22 03:53:55;;;;;;;9.32;4.32;;;;;;;-16.69;64.09;99234.47;4889846;29;20037;-58
2021/12/22 03:56:21;;;;;;;8.82;4.80;;;;;;;-16.64;64.20;99229.88;4889536;29;20332;-56
2021/12/22 03:58:47;;;;;;;10.15;5.38;;;;;;;-16.81;63.75;99224.47;4889741;29;20047;-57
2021/12/22 04:01:14;;;;;;;8.27;5.15;;;;;;;-16.61;63.68;99248.31;4888881;29;20037;-59
2021/12/22 04:03:41;;;;;;;10.30;5.13;;;;;;;-16.51;64.43;99249.91;4888784;29;20044;-58
2021/12/22 04:06:07;;;;;;;9.93;5.47;;;;;;;-16.51;63.53;99255.72;4888346;29;20037;-58
2021/12/22 04:08:33;;;;;;;13.30;5.78;;;;;;;-16.85;63.94;99203.53;4889861;29;20080;-58
2021/12/22 04:10:59;;;;;;;8.20;4.95;;;;;;;-16.53;63.57;99268.72;4889986;29;20376;-57
2021/12/22 04:13:25;;;;;;;7.80;4.90;;;;;;;-16.46;63.00;99262.63;4888669;29;20051;-57
2021/12/22 04:15:50;;;;;;;9.98;5.55;;;;;;;-16.54;63.60;99260.44;4889780;29;20044;-57
2021/12/22 04:18:17;;;;;;;7.63;4.80;;;;;;;-16.55;63.20;99262.78;4889434;29;20040;-57
2021/12/22 04:20:43;;;;;;;10.00;5.10;;;;;;;-16.70;62.24;99259.97;4893365;29;20084;-58
2021/12/22 04:23:09;;;;;;;10.40;5.10;;;;;;;-16.57;63.70;99264.25;4888334;29;20045;-58
2021/12/22 04:25:36;;;;;;;10.38;4.90;;;;;;;-17.11;63.73;99262.53;4888373;29;20099;-58
2021/12/22 04:28:07;;;;;;;7.10;4.30;;;;;;;-16.89;63.56;99256.06;4889568;29;20048;-58
2021/12/22 04:30:33;;;;;;;;;;;;;;;-16.65;64.31;99261.19;4900041;29;20041;-57
2021/12/22 04:33:00;;;;;;;9.68;4.93;;;;;;;-16.60;63.63;99266.50;4892239;29;19916;-59
2021/12/22 04:35:26;;;;;;;10.13;4.80;;;;;;;-16.60;63.46;99264.03;4887376;29;20329;-58
2021/12/22 04:37:51;;;;;;;7.57;4.50;;;;;;;-16.58;63.02;99257.59;4889262;29;20115;-57
2021/12/22 04:40:17;;;;;;;12.13;4.70;;;;;;;-16.68;62.25;99261.81;4888125;29;20036;-57
2021/12/22 04:42:44;;;;;;;9.40;4.90;;;;;;;-16.74;62.29;99251.44;4888081;29;20029;-57
2021/12/22 04:45:10;;;;;;;8.40;4.47;;;;;;;-16.71;62.83;99254.16;4887927;29;20032;-57
2021/12/22 04:47:36;;;;;;;9.60;4.75;;;;;;;-16.65;62.99;99248.81;4886866;29;20324;-59
2021/12/22 04:50:09;;;;;;;8.43;5.22;;;;;;;-17.11;63.13;99166.91;4888183;29;20033;-58
2021/12/22 04:52:42;;;;;;;9.68;6.15;;;;;;;-16.61;61.93;99258.22;4886866;29;20325;-57
2021/12/22 04:55:08;;;;;;;12.55;6.03;;;;;;;-16.58;63.14;99255.97;4887942;29;20049;-59
2021/12/22 04:57:34;;;;;;;9.27;4.57;;;;;;;-16.52;63.43;99258.94;4890380;29;20029;-58
2021/12/22 05:00:04;;;;;;;14.77;5.38;;;;;;;-16.48;62.48;99250.13;4888623;29;20040;-58
2021/12/22 05:02:30;;;;;;;9.27;4.75;;;;;;;-16.47;63.04;99258.41;4897016;29;20107;-58
2021/12/22 05:04:55;;;;;;;10.55;5.38;;;;;;;-16.46;62.90;99258.53;4896995;29;20226;-58
2021/12/22 05:07:21;;;;;;;9.48;5.20;;;;;;;-16.58;61.43;99260.94;4887615;29;20073;-54
2021/12/22 05:09:46;;;;;;;9.80;4.53;;;;;;;-16.53;62.03;99257.22;4888192;29;20246;-54
2021/12/22 05:12:12;;;;;;;12.98;4.78;;;;;;;-16.56;61.44;99256.09;4887935;29;20037;-55
2021/12/22 05:14:39;;;;;;;12.20;5.60;;;;;;;-16.53;61.48;99261.28;4888604;29;20070;-57
2021/12/22 05:17:06;;;;;;;14.43;5.85;;;;;;;-16.54;61.35;99264.53;4888729;29;20349;-57
2021/12/22 05:19:32;;;;;;;12.57;6.07;;;;;;;-16.67;61.00;99253.66;4868998;29;20061;-58
2021/12/22 05:21:58;;;;;;;11.20;5.07;;;;;;;-16.61;62.43;99264.78;4886675;29;20373;-57
2021/12/22 05:24:24;;;;;;;8.43;4.55;;;;;;;-16.77;61.03;99260.22;4890782;29;20056;-57
2021/12/22 05:26:50;;;;;;;8.32;4.75;;;;;;;-16.79;62.17;99265.06;4887556;29;20044;-57
2021/12/22 05:29:16;;;;;;;10.13;5.53;;;;;;;-16.79;61.23;99257.63;4886858;29;20025;-57
2021/12/22 05:31:42;;;;;;;8.07;5.00;;;;;;;-16.91;60.30;99256.72;4888472;29;20036;-57
2021/12/22 05:34:08;;;;;;;8.13;4.55;;;;;;;-16.87;60.39;99263.59;4887904;29;20041;-59
2021/12/22 05:36:34;;;;;;;9.18;5.28;;;;;;;-16.83;60.69;99269.66;4889507;29;20081;-58
2021/12/22 05:39:00;;;;;;;10.48;4.40;;;;;;;-16.83;60.58;99270.50;4890491;29;20451;-58
2021/12/22 05:41:26;;;;;;;9.13;4.22;;;;;;;-16.91;60.77;99251.78;4894673;29;20048;-58
2021/12/22 05:43:52;;;;;;;9.63;4.35;;;;;;;-16.91;60.66;99260.06;4892420;29;20048;-57
2021/12/22 05:46:17;;;;;;;9.10;3.95;;;;;;;-16.86;61.03;99268.69;4889395;29;20025;-57
2021/12/22 05:48:48;;;;;;;9.10;5.47;;;;;;;-17.00;60.75;99260.94;4888607;29;20217;-59
2021/12/22 05:51:14;;;;;;;8.70;4.43;;;;;;;-16.99;61.39;99266.00;4891896;29;20024;-57
2021/12/22 05:53:39;;;;;;;9.63;4.43;;;;;;;-16.98;60.35;99280.13;4891145;29;20082;-59
2021/12/22 05:56:05;;;;;;;9.93;5.38;;;;;;;-17.12;60.62;99269.09;4891075;29;20032;-60
2021/12/22 05:58:30;;;;;;;7.30;4.57;;;;;;;-17.02;60.35;99279.00;4892044;29;20036;-57
2021/12/22 06:00:56;;;;;;;8.45;4.53;;;;;;;-17.25;59.82;99287.03;4892185;29;20029;-58
2021/12/22 06:03:22;;;;;;;8.48;4.60;;;;;;;-17.24;60.58;99268.09;4892005;29;20078;-58
2021/12/22 06:05:48;;;;;;;9.77;4.63;;;;;;;-17.25;60.28;99274.66;4890812;29;20160;-58
2021/12/22 06:08:13;;;;;;;9.18;5.18;;;;;;;-17.24;60.47;99275.53;4890554;29;20044;-58
2021/12/22 06:10:39;;;;;;;10.95;4.75;;;;;;;-17.24;60.99;99270.56;4890627;29;20484;-59
2021/12/22 06:13:07;;;;;;;11.10;5.60;;;;;;;-17.20;60.92;99283.34;4890888;29;20311;-58
2021/12/22 06:15:34;;;;;;;10.48;6.32;;;;;;;-17.39;60.07;99255.38;4888554;29;20029;-57
2021/12/22 06:18:01;;;;;;;13.00;6.45;;;;;;;-17.20;60.83;99277.50;4889303;29;20044;-58
2021/12/22 06:20:28;;;;;;;12.73;6.93;;;;;;;-17.16;60.80;99283.59;4888407;29;20233;-58
2021/12/22 06:22:54;;;;;;;11.85;6.35;;;;;;;-17.24;61.22;99273.94;4886833;29;20029;-57
2021/12/22 06:25:21;;;;;;;9.75;5.78;;;;;;;-17.13;60.87;99284.69;4888156;29;20108;-58
2021/12/22 06:27:46;;;;;;;10.93;5.53;;;;;;;-17.21;61.70;99284.06;4891325;29;20056;-58
2021/12/22 06:30:12;;;;;;;11.32;5.07;;;;;;;-17.17;60.84;99271.94;4889324;29;20108;-57
2021/12/22 06:32:38;;;;;;;11.27;5.28;;;;;;;-17.14;61.13;99282.09;4890337;29;20060;-58
2021/12/22 06:35:05;;;;;;;9.88;5.18;;;;;;;-17.09;61.04;99278.38;4889428;29;20320;-59
2021/12/22 06:37:30;;;;;;;11.32;5.85;;;;;;;-17.30;61.40;99275.91;4869873;29;20183;-60
2021/12/22 06:39:56;;;;;;;11.02;5.20;;;;;;;-17.13;60.71;99289.63;4886046;29;20146;-59
2021/12/22 06:42:23;;;;;;;10.68;5.78;;;;;;;-17.13;60.96;99291.25;4891284;29;20077;-57
2021/12/22 06:44:49;;;;;;;18.73;6.18;;;;;;;-17.28;60.77;99300.78;4886447;29;20348;-58
2021/12/22 06:47:15;;;;;;;14.68;5.53;;;;;;;-17.23;60.84;99302.88;4893613;29;20025;-57
2021/12/22 06:49:41;;;;;;;10.05;5.35;;;;;;;-17.26;60.71;99294.34;4892080;29;20044;-59
2021/12/22 06:52:07;;;;;;;12.05;5.18;;;;;;;-17.32;60.90;99297.19;4890838;29;20029;-59
2021/12/22 06:54:33;;;;;;;12.88;5.57;;;;;;;-17.25;61.47;99306.84;4890377;29;20032;-58
2021/12/22 06:56:58;;;;;;;10.88;5.20;;;;;;;-17.32;60.59;99302.13;4890794;29;20035;-59
2021/12/22 06:59:24;;;;;;;13.13;5.47;;;;;;;-17.27;60.79;99309.94;4889829;29;20040;-57
2021/12/22 07:01:50;;;;;;;11.02;5.50;;;;;;;-17.32;60.44;99314.50;4890768;29;20025;-59
2021/12/22 07:04:18;;;;;;;7.50;4.68;;;;;;;-17.21;60.67;99317.88;4889686;29;20217;-58
2021/12/22 07:06:43;;;;;;;11.50;5.32;;;;;;;-17.16;60.44;99320.72;4890492;29;20037;-58
2021/12/22 07:09:09;;;;;;;11.73;5.30;;;;;;;-17.25;59.63;99313.41;4887903;29;20029;-59
2021/12/22 07:11:37;;;;;;;10.98;5.55;;;;;;;-17.24;59.84;99313.53;4888254;29;20041;-58
2021/12/22 07:14:06;;;;;;;11.77;4.93;;;;;;;-17.60;60.05;99245.44;4888028;29;20108;-58
2021/12/22 07:16:32;;;;;;;11.43;5.88;;;;;;;-17.11;60.25;99320.34;4891049;29;20029;-59
2021/12/22 07:18:57;;;;;;;10.65;5.88;;;;;;;-17.12;60.71;99315.28;4888620;29;20263;-59
2021/12/22 07:21:23;;;;;;;12.80;5.97;;;;;;;-17.08;60.43;99320.59;4889010;29;20060;-59
2021/12/22 07:23:49;;;;;;;14.93;5.90;;;;;;;-17.04;60.53;99319.25;4889804;29;20242;-58
2021/12/22 07:26:15;;;;;;;11.38;5.75;;;;;;;-17.19;60.45;99311.41;4890595;29;20041;-58
2021/12/22 07:28:47;;;;;;;9.55;5.25;;;;;;;-17.66;59.70;99257.31;4890819;29;20048;-59
2021/12/22 07:31:14;;;;;;;11.35;5.30;;;;;;;-17.26;59.88;99324.88;4890988;29;20198;-60
2021/12/22 07:33:46;;;;;;;13.00;5.70;;;;;;;-17.32;59.59;99308.69;4889406;29;20029;-59
2021/12/22 07:36:12;;;;;;;14.00;5.10;;;;;;;-17.20;59.96;99334.44;4890979;29;20069;-58
2021/12/22 07:38:51;;;;;;;15.40;5.55;;;;;;;-17.02;59.63;99337.53;4890824;29;20029;-57
2021/12/22 07:41:16;;;;;;;12.98;5.97;;;;;;;-17.02;60.62;99318.59;4890823;29;20041;-59
2021/12/22 07:43:42;;;;;;;9.18;5.40;;;;;;;-16.98;60.79;99319.72;4890739;29;20040;-58
2021/12/22 07:46:08;;;;;;;10.80;5.38;;;;;;;-17.17;59.99;99318.97;4890125;29;20037;-59
2021/12/22 07:48:36;;;;;;;11.32;4.18;;;;;;;-17.76;60.38;99259.78;4889546;29;20021;-58
2021/12/22 07:51:02;;;;;;;11.80;4.88;;;;;;;-17.22;60.14;99336.78;4890289;29;20068;-59
2021/12/22 07:53:28;;;;;;;16.58;5.00;;;;;;;-17.18;60.10;99324.66;4889537;29;20029;-59
2021/12/22 07:55:54;;;;;;;12.80;5.57;;;;;;;-17.20;60.71;99327.88;4889291;29;20053;-59
2021/12/22 07:58:23;;;;;;;11.57;5.38;;;;;;;-17.05;60.50;99328.25;4888567;29;20033;-59
2021/12/22 08:00:49;;;;;;;11.23;4.50;;;;;;;-17.12;59.99;99318.59;4890412;29;20025;-59
2021/12/22 08:03:15;;;;;;;9.30;4.50;;;;;;;-17.25;59.81;99336.53;4904858;29;20274;-59
2021/12/22 08:05:41;;;;;;;8.18;4.18;;;;;;;-17.21;59.95;99328.63;4888958;29;20025;-59
2021/12/22 08:08:06;;;;;;;9.60;4.47;;;;;;;-16.98;60.31;99329.63;4888964;29;20041;-58
2021/12/22 08:10:33;;;;;;;8.02;4.22;;;;;;;-16.87;59.94;99330.44;4890035;29;20321;-58
2021/12/22 08:12:59;;;;;;;8.73;4.20;;;;;;;-16.80;59.71;99335.13;4903021;29;20060;-58
2021/12/22 08:15:25;;;;;;;9.02;5.20;;;;;;;-16.73;58.86;99332.44;4902468;29;20225;-58
2021/12/22 08:17:52;;;;;;;7.97;4.43;;;;;;;-16.53;59.13;99320.75;4888861;29;20029;-58
2021/12/22 08:20:19;;;;;;;9.05;4.10;;;;;;;-16.50;59.15;99321.88;4888661;29;20028;-59
2021/12/22 08:22:44;;;;;;;7.55;4.60;;;;;;;-16.37;58.99;99328.66;4888509;29;20064;-59
2021/12/22 08:25:10;;;;;;;11.02;5.15;;;;;;;-16.34;58.38;99337.94;4889050;29;20049;-58
2021/12/22 08:27:36;;;;;;;9.18;3.63;;;;;;;-16.40;58.82;99320.09;4889418;29;20317;-59
2021/12/22 08:30:03;;;;;;;8.85;4.40;;;;;;;-16.49;57.87;99320.25;4889216;29;20024;-58
2021/12/22 08:32:29;;;;;;;9.65;4.57;;;;;;;-16.33;58.59;99327.25;4892004;29;20041;-58
2021/12/22 08:34:56;;;;;;;7.70;4.57;;;;;;;-16.32;57.14;99337.28;4889727;29;20025;-58
2021/12/22 08:40:10;;;;;;;5.72;4.07;;;;;;;-17.05;57.86;99253.16;4888085;29;20096;-58
2021/12/22 08:42:36;;;;;;;8.98;4.35;;;;;;;-16.57;57.07;99331.16;4888952;29;20104;-59
2021/12/22 08:45:02;;;;;;;9.32;4.47;;;;;;;-16.61;57.36;99324.22;4888342;29;20028;-58
2021/12/22 08:47:28;;;;;;;9.18;4.80;;;;;;;-16.51;56.55;99330.03;4888439;29;20076;-57
2021/12/22 08:49:54;;;;;;;11.38;4.75;;;;;;;-16.50;56.77;99333.38;4888427;29;20029;-60
2021/12/22 08:52:20;;;;;;;11.18;5.22;;;;;;;-16.38;56.83;99335.97;4888390;29;20021;-60
2021/12/22 08:54:45;;;;;;;10.10;5.28;;;;;;;-16.56;55.84;99327.94;4886484;29;20402;-59
2021/12/22 08:57:11;;;;;;;10.18;4.60;;;;;;;-16.33;57.06;99328.16;4885916;29;20029;-59
2021/12/22 08:59:36;;;;;;;8.63;5.32;;;;;;;-16.34;57.58;99331.34;4886269;29;20036;-58
2021/12/22 09:02:02;;;;;;;9.98;4.95;;;;;;;-16.38;55.91;99326.06;4877813;29;20033;-58
2021/12/22 09:04:28;;;;;;;11.23;4.78;;;;;;;-16.46;56.92;99334.47;4887492;29;20136;-59
2021/12/22 09:06:54;;;;;;;10.13;5.18;;;;;;;-16.39;56.92;99334.22;4887891;29;20221;-60
2021/12/22 09:09:21;;;;;;;6.10;4.32;;;;;;;-16.37;56.06;99322.81;4887858;29;20324;-58
2021/12/22 09:11:47;;;;;;;9.98;5.25;;;;;;;-16.26;56.69;99327.00;4890870;29;20025;-60
2021/12/22 09:14:13;;;;;;;10.43;5.40;;;;;;;-16.04;56.49;99331.16;4891553;29;20037;-60
2021/12/22 09:16:40;;;;;;;9.30;5.32;;;;;;;-16.09;54.70;99334.88;4905646;29;20108;-60
2021/12/22 09:19:07;;;;;;;13.02;5.60;;;;;;;-15.68;55.21;99323.13;4890667;29;20404;-58
2021/12/22 09:21:33;;;;;;;10.40;5.82;;;;;;;-15.81;53.79;99337.88;4892844;29;20080;-58
2021/12/22 09:23:59;;;;;;;14.52;5.68;;;;;;;-15.94;54.43;99340.16;4891239;29;20037;-60
2021/12/22 09:26:25;;;;;;;9.45;5.97;;;;;;;-16.19;54.26;99338.25;4891339;29;20369;-58
2021/12/22 09:28:52;;;;;;;12.50;5.78;;;;;;;-16.33;54.40;99323.19;4892209;29;20119;-60
2021/12/22 09:31:18;;;;;;;9.30;4.93;;;;;;;-16.57;56.55;99332.03;4891623;29;20029;-58
2021/12/22 09:33:44;;;;;;;13.55;6.30;;;;;;;-16.54;56.45;99319.88;4890471;29;20376;-59
2021/12/22 09:36:11;;;;;;;11.95;6.03;;;;;;;-16.56;56.20;99326.31;4891987;29;20072;-59
2021/12/22 09:38:37;;;;;;;12.23;6.10;;;;;;;-16.33;57.31;99327.25;4891453;29;20025;-60
2021/12/22 09:41:04;;;;;;;12.88;6.40;;;;;;;-16.32;56.01;99332.34;4892148;29;20037;-58
2021/12/22 09:43:30;;;;;;;13.13;6.32;;;;;;;-16.30;57.23;99334.97;4891608;29;20206;-58
2021/12/22 09:46:01;;;;;;;14.25;6.00;;;;;;;-16.22;56.79;99338.03;4892477;29;20326;-58
2021/12/22 09:52:15;;;;;;;8.80;5.45;;;;;;;-16.30;56.55;99330.00;4887876;29;20092;-58
2021/12/22 09:53:43;;;;;;;11.48;5.72;;;;;;;-16.44;55.58;99336.34;4892478;29;20061;-58
2021/12/22 09:56:10;;;;;;;8.98;5.43;;;;;;;-16.40;55.57;99342.38;4892570;29;20033;-58
2021/12/22 09:58:38;;;;;;;10.00;5.90;;;;;;;-16.34;57.09;99337.94;4889890;29;20318;-58
2021/12/22 10:01:04;;;;;;;11.20;5.60;;;;;;;-16.29;57.14;99341.63;4891570;29;20328;-57
2021/12/22 10:03:31;;;;;;;10.77;5.97;;;;;;;-16.26;57.71;99336.91;4891225;29;20052;-59
2021/12/22 10:05:57;;;;;;;12.68;5.82;;;;;;;-16.17;57.08;99340.13;4891491;29;20025;-60
2021/12/22 10:08:25;;;;;;;12.25;5.53;;;;;;;-16.08;56.56;99359.78;4891186;29;20028;-60
2021/12/22 10:11:04;;;;;;;10.98;6.03;;;;;;;-15.92;58.09;99339.53;4891092;29;20025;-59
2021/12/22 10:13:31;;;;;;;9.65;6.18;;;;;;;-15.86;56.78;99354.00;4891545;29;20103;-59
2021/12/22 10:15:58;;;;;;;14.00;6.18;;;;;;;-15.75;57.32;99338.31;4891223;29;20317;-60
2021/12/22 10:18:26;;;;;;;12.43;5.88;;;;;;;-15.87;57.73;99338.28;4892230;29;20033;-59
2021/12/22 10:21:07;;;;;;;10.10;6.07;;;;;;;-15.90;55.39;99345.47;4890720;29;20035;-62
2021/12/22 10:23:34;;;;;;;12.23;5.78;;;;;;;-15.90;56.65;99332.19;4892182;29;20085;-61
2021/12/22 10:26:05;;;;;;;11.48;6.30;;;;;;;-16.39;56.33;99258.25;4905129;29;20056;-60
2021/12/22 10:28:46;;;;;;;15.13;6.72;;;;;;;-16.16;56.84;99321.13;4887833;29;20033;-59
2021/12/22 10:31:12;;;;;;;16.90;6.75;;;;;;;-15.94;56.04;99333.59;4881198;29;20033;-59
2021/12/22 10:33:40;;;;;;;10.20;5.50;;;;;;;-16.54;55.55;99264.53;4891805;29;20035;-59
2021/12/22 10:36:12;;;;;;;12.30;5.93;;;;;;;-16.21;56.33;99353.00;4889991;29;20029;-60
2021/12/22 10:38:37;;;;;;;10.55;5.32;;;;;;;-16.40;56.33;99317.63;4888573;29;20029;-59
2021/12/22 10:41:10;;;;;;;13.82;5.47;;;;;;;-16.80;55.48;99238.56;4890907;29;20119;-59
2021/12/22 10:43:49;;;;;;;17.17;6.70;;;;;;;-16.29;56.85;99321.78;4890920;29;20033;-59
2021/12/22 10:46:27;;;;;;;15.25;6.43;;;;;;;-16.08;56.01;99351.50;4890377;29;20051;-59
2021/12/22 10:49:17;;;;;;;12.10;6.18;;;;;;;-16.24;56.28;99328.00;4886632;29;20025;-59
2021/12/22 10:52:01;;;;;;;13.50;5.90;;;;;;;-16.56;55.53;99300.69;4890424;29;20037;-59
2021/12/22 10:54:36;;;;;;;11.65;6.07;;;;;;;-16.39;56.87;99349.94;4887606;29;20076;-59
2021/12/22 10:57:05;;;;;;;18.35;8.60;;;;;;;-16.20;58.19;99342.34;4891054;29;20202;-59
2021/12/22 10:59:45;;;;;;;13.55;6.93;;;;;;;-16.12;57.40;99344.56;4889972;29;20033;-60
2021/12/22 11:02:18;;;;;;;11.32;6.40;;;;;;;-16.17;57.15;99345.06;4890026;29;20037;-59
2021/12/22 11:04:44;;;;;;;11.73;6.57;;;;;;;-16.11;56.93;99361.19;4889715;29;20259;-60
2021/12/22 11:07:23;;;;;;;10.50;5.57;;;;;;;-16.03;57.10;99375.91;4887925;29;20056;-60
2021/12/22 11:09:49;;;;;;;9.60;4.88;;;;;;;-16.09;57.11;99349.75;4886620;29;20076;-59
2021/12/22 11:12:17;;;;;;;9.02;5.32;;;;;;;-16.15;56.10;99353.47;4891414;29;20021;-60
2021/12/22 11:14:47;;;;;;;8.68;5.03;;;;;;;-16.01;56.51;99358.66;4891022;29;20052;-60
2021/12/22 11:17:18;;;;;;;7.53;4.85;;;;;;;-16.43;55.41;99364.47;4890090;29;20088;-59
2021/12/22 11:19:44;;;;;;;10.38;6.43;;;;;;;-16.27;56.18;99364.03;4889537;29;20028;-60
2021/12/22 11:22:14;;;;;;;7.47;4.68;;;;;;;-16.42;55.49;99373.63;4874484;29;20032;-60
2021/12/22 11:24:43;;;;;;;10.15;5.13;;;;;;;-16.56;55.67;99361.00;4889797;29;20053;-59
2021/12/22 11:27:11;;;;;;;11.82;5.00;;;;;;;-16.62;55.79;99370.41;4889780;29;20035;-59
2021/12/22 11:29:41;;;;;;;14.85;7.32;;;;;;;-16.42;56.05;99373.63;4915474;29;20103;-59
2021/12/22 11:32:08;;;;;;;12.75;5.80;;;;;;;-16.32;57.18;99376.09;4904863;29;20093;-59
2021/12/22 11:34:36;;;;;;;6.88;3.67;;;;;;;-17.14;56.01;99273.06;4887396;29;20029;-61
2021/12/22 11:37:05;;;;;;;7.22;3.83;;;;;;;-16.57;56.12;99408.81;4884374;29;20376;-60